This is the latest recevied weather packets stored in our database for station/object KQ4TV-2. If no packets are shown the sender has not sent any weather packets the latest 10 day(s).
| Time | Temp. | Humidity | Pressure | Rain* | Wind** | Luminosity | Snow |
|---|---|---|---|---|---|---|---|
| 1787855246 | 30.56° C | 60% | - | 0 mm | - | - | - |
| 1787843765 | 26.11° C | 80% | - | 0 mm | - | - | - |
| 1787841952 | 25° C | 84% | - | 0 mm | - | - | - |
| 1787835739 | 20.56° C | 97% | - | 0 mm | - | - | - |
| 1787835668 | 20.56° C | 97% | - | 0 mm | - | - | - |
| 1787829384 | 20° C | 97% | - | 0 mm | - | - | - |
| 1787824592 | 20° C | 96% | - | 0 mm | - | - | - |
| 1787824549 | 20° C | 96% | - | 0 mm | - | - | - |
| 1787820682 | 20° C | 96% | - | 0 mm | - | - | - |
| 1787812360 | 21.11° C | 95% | - | 0 mm | - | - | - |
| 1787812222 | 21.11° C | 95% | - | 0 mm | - | - | - |
| 1787808234 | 22.22° C | 95% | - | 0 mm | - | - | - |
| 1787804851 | 22.22° C | 94% | - | 0 mm | - | - | - |
| 1787803642 | 22.78° C | 94% | - | 0 mm | - | - | - |
| 1787802675 | 22.78° C | 94% | - | 0 mm | - | - | - |
| 1787802071 | 22.78° C | 94% | - | 0 mm | - | - | - |
| 1787801467 | 22.78° C | 94% | - | 0 mm | - | - | - |
| 1787787085 | 27.22° C | 77% | - | 0 mm | - | - | - |
| 1787779351 | 25.56° C | 86% | - | 0 mm | - | - | - |
| 1787762794 | 28.33° C | 64% | - | 0 mm | - | - | - |
| 1787750105 | 21.67° C | 92% | - | 0 mm | - | - | - |
| 1787748050 | 20° C | 95% | - | 0 mm | - | - | - |
| 1787746117 | 19.44° C | 95% | - | 0 mm | - | - | - |
| 1787745029 | 18.89° C | 95% | - | 0 mm | - | - | - |
| 1787743820 | 18.89° C | 95% | - | 0 mm | - | - | - |
* Rain since midnight (hover to see other rain measurements)
** Current wind speed in m/s (hover to see current wind gust speed)